Time;durP1;ratioP1;P1;durP2;ratioP2;P2;SDS_P1;SDS_P2;PMS_P1;PMS_P2;Temp;Humidity;BMP_temperature;BMP_pressure;BME280_temperature;BME280_humidity;BME280_pressure;Samples;Min_cycle;Max_cycle;Signal;HPM_P1;HPM_P2
2022/12/30 00:01:19;;;;;;;6.25;2.25;;;10.90;89.70;;;;;;5053076;28;20079;-78
2022/12/30 00:03:45;;;;;;;5.75;2.00;;;10.90;89.00;;;;;;5051863;28;20025;-78
2022/12/30 00:06:16;;;;;;;5.90;2.42;;;10.90;89.10;;;;;;5050806;28;20049;-79
2022/12/30 00:08:47;;;;;;;6.05;2.17;;;10.90;89.10;;;;;;5053103;28;20021;-77
2022/12/30 00:11:16;;;;;;;5.85;2.10;;;10.90;89.60;;;;;;5052945;28;20079;-78
2022/12/30 00:34:06;;;;;;;6.72;2.35;;;11.00;89.10;;;;;;5052667;28;20094;-79
2022/12/30 00:36:32;;;;;;;6.60;2.40;;;10.90;89.10;;;;;;5050774;28;20025;-79
2022/12/30 00:38:57;;;;;;;6.03;2.30;;;10.90;89.10;;;;;;5048990;28;20036;-77
2022/12/30 00:44:07;;;;;;;5.30;2.20;;;11.00;89.10;;;;;;5050513;28;20032;-79
2022/12/30 00:46:34;;;;;;;6.22;2.15;;;10.90;89.00;;;;;;5048981;28;20021;-78
2022/12/30 00:57:12;;;;;;;5.45;1.90;;;10.90;89.00;;;;;;5051800;28;20112;-77
2022/12/30 00:59:37;;;;;;;5.88;2.17;;;10.90;89.00;;;;;;5050591;28;20547;-79
2022/12/30 01:02:03;;;;;;;6.05;2.30;;;10.90;89.10;;;;;;5051723;28;20102;-78
2022/12/30 01:04:28;;;;;;;6.90;2.20;;;10.90;89.10;;;;;;5053599;28;20484;-78
2022/12/30 01:06:54;;;;;;;5.60;1.77;;;10.90;89.10;;;;;;5052081;28;20028;-74
2022/12/30 01:09:19;;;;;;;5.95;2.33;;;11.00;89.20;;;;;;5051090;28;20029;-78
2022/12/30 01:12:07;;;;;;;6.30;2.05;;;10.90;89.00;;;;;;5052036;28;20490;-77
2022/12/30 01:14:30;;;;;;;5.78;2.10;;;10.90;89.10;;;;;;5052165;28;20475;-77
2022/12/30 01:16:56;;;;;;;4.80;1.98;;;11.00;89.10;;;;;;5051756;28;20030;-77
2022/12/30 01:19:21;;;;;;;5.25;2.28;;;10.90;89.10;;;;;;5050881;28;20439;-77
2022/12/30 01:21:47;;;;;;;4.75;1.90;;;10.90;89.10;;;;;;5050604;28;20061;-77
2022/12/30 01:24:12;;;;;;;4.72;1.90;;;10.90;89.10;;;;;;5050874;28;20438;-77
2022/12/30 01:26:38;;;;;;;4.65;1.80;;;10.90;89.10;;;;;;5051986;28;20049;-77
2022/12/30 01:29:03;;;;;;;4.65;1.90;;;10.90;89.10;;;;;;5051936;28;20033;-78
2022/12/30 01:31:29;;;;;;;5.07;1.95;;;10.90;89.10;;;;;;5050531;28;20014;-77
2022/12/30 01:33:54;;;;;;;5.43;2.22;;;11.00;89.10;;;;;;5051947;28;20028;-77
2022/12/30 01:36:20;;;;;;;5.38;1.70;;;10.90;89.10;;;;;;5051892;28;20056;-77
2022/12/30 01:38:45;;;;;;;5.88;2.08;;;10.90;89.20;;;;;;5050670;28;20029;-79
2022/12/30 01:41:10;;;;;;;6.05;2.28;;;10.90;89.10;;;;;;5050574;28;20025;-76
2022/12/30 01:43:44;;;;;;;4.85;1.90;;;11.00;89.10;;;;;;5052247;28;20029;-77
2022/12/30 01:46:15;;;;;;;5.50;1.88;;;10.90;89.20;;;;;;5050761;28;20064;-77
2022/12/30 01:48:41;;;;;;;6.03;2.00;;;10.90;89.10;;;;;;5051905;28;20539;-77
2022/12/30 01:51:12;;;;;;;5.15;1.92;;;11.00;89.20;;;;;;5049929;28;20121;-78
2022/12/30 01:53:42;;;;;;;5.75;2.10;;;11.00;89.10;;;;;;5049671;28;20490;-78
2022/12/30 01:56:28;;;;;;;4.53;1.70;;;11.00;89.20;;;;;;5048975;28;20075;-77
2022/12/30 01:58:59;;;;;;;5.97;1.90;;;10.90;89.10;;;;;;5049958;28;20037;-77
2022/12/30 02:01:25;;;;;;;4.10;1.77;;;11.00;89.10;;;;;;5051134;28;20033;-77
2022/12/30 02:04:01;;;;;;;4.82;1.80;;;10.90;89.10;;;;;;5050038;28;20059;-78
2022/12/30 02:06:52;;;;;;;4.00;1.63;;;10.90;89.10;;;;;;5051313;28;20096;-77
2022/12/30 02:09:18;;;;;;;5.03;1.58;;;10.90;89.10;;;;;;5051343;28;20021;-77
2022/12/30 02:11:44;;;;;;;4.72;1.60;;;11.00;89.20;;;;;;5051108;28;20078;-77
2022/12/30 02:14:10;;;;;;;5.25;1.80;;;10.90;89.10;;;;;;5050081;28;20433;-77
2022/12/30 02:16:59;;;;;;;5.15;2.13;;;10.90;89.10;;;;;;5051090;28;20033;-77
2022/12/30 02:19:51;;;;;;;4.25;1.50;;;10.90;89.10;;;;;;5051175;28;20021;-77
2022/12/30 02:22:58;;;;;;;4.10;1.70;;;10.90;89.10;;;;;;5051437;28;20060;-77
2022/12/30 02:25:39;;;;;;;5.18;1.80;;;10.90;89.10;;;;;;5051618;28;20048;-77
2022/12/30 02:28:40;;;;;;;3.47;1.43;;;10.90;89.10;;;;;;5050544;28;20025;-77
2022/12/30 02:31:06;;;;;;;5.75;1.80;;;10.90;89.10;;;;;;5055037;28;20495;-78
2022/12/30 02:33:44;;;;;;;4.57;1.75;;;10.90;89.10;;;;;;5054907;28;20131;-78
2022/12/30 02:36:20;;;;;;;4.25;1.42;;;10.90;89.10;;;;;;5054901;28;20051;-78
2022/12/30 02:39:04;;;;;;;5.13;1.73;;;10.90;89.10;;;;;;5053635;28;20104;-77
2022/12/30 02:44:37;;;;;;;4.90;1.63;;;10.90;89.10;;;;;;5054700;28;20025;-77
2022/12/30 02:47:22;;;;;;;5.40;2.00;;;10.90;89.10;;;;;;5054682;28;20075;-77
2022/12/30 02:52:14;;;;;;;5.13;1.92;;;10.90;89.10;;;;;;5053402;28;20021;-77
2022/12/30 02:52:39;;;;;;;4.15;1.70;;;10.90;89.10;;;;;;5054249;28;20053;-76
2022/12/30 02:55:06;;;;;;;4.45;1.60;;;10.90;89.10;;;;;;5053350;28;20036;-77
2022/12/30 02:57:34;;;;;;;4.97;1.98;;;10.90;89.20;;;;;;5054178;28;20033;-77
2022/12/30 03:06:27;;;;;;;3.63;1.35;;;10.90;89.10;;;;;;5072865;28;20101;-77
2022/12/30 03:09:20;;;;;;;5.43;1.85;;;10.90;89.10;;;;;;5072987;28;20028;-77
2022/12/30 03:12:07;;;;;;;5.20;1.80;;;10.90;89.10;;;;;;5072810;28;20024;-78
2022/12/30 03:14:50;;;;;;;4.40;1.55;;;10.90;89.10;;;;;;5073246;28;20021;-78
2022/12/30 03:17:22;;;;;;;4.47;1.60;;;10.90;89.10;;;;;;5074072;28;20033;-77
2022/12/30 03:19:52;;;;;;;3.60;1.40;;;10.90;89.10;;;;;;5074159;28;20032;-77
2022/12/30 03:27:53;;;;;;;3.90;1.58;;;10.90;89.10;;;;;;5074129;28;20074;-77
2022/12/30 03:30:19;;;;;;;3.90;1.50;;;10.90;89.10;;;;;;5073942;28;20027;-77
2022/12/30 03:32:46;;;;;;;4.85;1.60;;;10.90;89.10;;;;;;5073559;28;20032;-77
2022/12/30 03:35:12;;;;;;;4.72;1.48;;;10.90;89.70;;;;;;5072565;28;20379;-78
2022/12/30 03:37:44;;;;;;;3.95;1.52;;;10.90;89.10;;;;;;5072320;28;20042;-78
2022/12/30 03:40:12;;;;;;;4.90;1.80;;;10.90;89.10;;;;;;5073034;28;20020;-77
2022/12/30 03:42:38;;;;;;;4.53;1.50;;;10.90;89.10;;;;;;5073011;28;20028;-78
2022/12/30 03:45:04;;;;;;;5.72;1.50;;;10.90;89.10;;;;;;5072001;28;20483;-77
2022/12/30 03:47:30;;;;;;;4.53;1.58;;;10.90;89.00;;;;;;5072125;28;20055;-78
2022/12/30 03:49:55;;;;;;;3.90;1.58;;;10.90;89.10;;;;;;5071724;28;20425;-78
2022/12/30 03:52:21;;;;;;;5.00;1.58;;;10.90;89.00;;;;;;5071788;28;20025;-77
2022/12/30 03:54:48;;;;;;;4.15;1.42;;;10.90;89.10;;;;;;5073252;28;20023;-77
2022/12/30 03:57:14;;;;;;;4.38;1.50;;;10.90;89.00;;;;;;5073200;28;20376;-77
2022/12/30 03:59:40;;;;;;;5.43;1.83;;;10.90;89.10;;;;;;5072149;28;20108;-77
2022/12/30 04:02:06;;;;;;;4.60;1.55;;;10.90;89.10;;;;;;5071664;28;20025;-77
2022/12/30 04:04:31;;;;;;;4.70;1.60;;;10.90;89.10;;;;;;5073066;28;20402;-77
2022/12/30 04:06:57;;;;;;;4.28;1.58;;;10.90;89.00;;;;;;5071752;28;20492;-77
2022/12/30 04:09:23;;;;;;;4.18;1.52;;;10.80;89.00;;;;;;5072859;28;20108;-77
2022/12/30 04:11:48;;;;;;;3.95;1.70;;;10.90;89.00;;;;;;5072767;28;20103;-77
2022/12/30 04:14:14;;;;;;;4.10;1.38;;;10.90;89.00;;;;;;5072034;28;20024;-77
2022/12/30 04:16:39;;;;;;;3.88;1.35;;;10.90;89.10;;;;;;5072981;28;20063;-77
2022/12/30 04:19:05;;;;;;;4.07;1.40;;;10.90;89.10;;;;;;5073030;28;20075;-77
2022/12/30 04:21:30;;;;;;;5.75;1.40;;;10.90;89.10;;;;;;5071368;28;20032;-77
2022/12/30 04:23:56;;;;;;;4.63;1.55;;;10.90;89.00;;;;;;5072683;28;20032;-78
2022/12/30 04:26:22;;;;;;;5.53;1.40;;;10.90;89.00;;;;;;5073118;28;20048;-78
2022/12/30 04:28:47;;;;;;;3.80;1.33;;;10.90;89.00;;;;;;5072041;28;20471;-78
2022/12/30 04:31:12;;;;;;;4.70;1.60;;;10.90;88.90;;;;;;5073009;28;20237;-79
2022/12/30 04:33:38;;;;;;;5.68;1.50;;;10.90;88.80;;;;;;5072622;28;20025;-78
2022/12/30 04:36:04;;;;;;;4.18;1.55;;;10.90;88.80;;;;;;5071640;28;20025;-78
2022/12/30 04:38:29;;;;;;;4.13;1.40;;;10.90;88.90;;;;;;5072689;28;20025;-78
2022/12/30 04:40:55;;;;;;;4.55;1.40;;;10.90;88.70;;;;;;5071385;28;20112;-79
2022/12/30 04:43:20;;;;;;;5.03;1.80;;;10.90;88.70;;;;;;5071409;28;20028;-79
2022/12/30 04:45:46;;;;;;;4.80;1.30;;;10.90;88.70;;;;;;5071447;28;20111;-78
2022/12/30 04:48:11;;;;;;;3.30;1.33;;;10.90;88.80;;;;;;5071612;28;20028;-78
2022/12/30 04:50:43;;;;;;;4.32;1.33;;;10.80;88.70;;;;;;5071986;28;20419;-77
2022/12/30 04:53:10;;;;;;;3.85;1.23;;;10.90;88.70;;;;;;5072528;28;20028;-77
2022/12/30 04:55:35;;;;;;;3.63;1.38;;;10.90;88.80;;;;;;5071368;28;20028;-78
2022/12/30 04:58:01;;;;;;;3.70;1.30;;;10.90;88.70;;;;;;5072489;28;20548;-78
2022/12/30 05:00:26;;;;;;;4.15;1.40;;;10.90;88.90;;;;;;5072703;28;20035;-78
2022/12/30 05:02:52;;;;;;;3.58;1.42;;;10.90;88.80;;;;;;5066430;28;20025;-76
2022/12/30 05:05:17;;;;;;;3.72;1.33;;;10.90;88.80;;;;;;5067558;28;20028;-78
2022/12/30 05:07:43;;;;;;;3.78;1.40;;;10.90;88.80;;;;;;5052429;28;20025;-78
2022/12/30 05:10:08;;;;;;;4.70;1.60;;;10.90;88.90;;;;;;5051153;28;20025;-78
2022/12/30 05:12:33;;;;;;;3.60;1.40;;;10.90;88.80;;;;;;5051065;28;20036;-78
2022/12/30 05:15:00;;;;;;;3.20;1.20;;;10.90;88.80;;;;;;5052312;28;20032;-78
2022/12/30 05:17:25;;;;;;;4.18;1.30;;;10.90;88.80;;;;;;5051900;28;20032;-78
2022/12/30 05:19:51;;;;;;;3.58;1.10;;;10.80;88.80;;;;;;5052344;28;20029;-78
2022/12/30 05:22:16;;;;;;;3.10;1.30;;;10.90;88.80;;;;;;5052168;28;20021;-78
2022/12/30 05:27:26;;;;;;;3.60;1.40;;;10.90;88.90;;;;;;5052148;28;20071;-78
2022/12/30 05:29:51;;;;;;;3.13;1.27;;;10.90;88.80;;;;;;5052166;28;20479;-78
2022/12/30 05:32:17;;;;;;;4.07;1.23;;;10.90;88.80;;;;;;5052486;28;20028;-78
2022/12/30 05:34:42;;;;;;;2.88;1.30;;;10.90;88.80;;;;;;5051087;28;20364;-78
2022/12/30 05:37:08;;;;;;;4.25;1.27;;;10.90;88.80;;;;;;5052114;28;20031;-80
2022/12/30 05:39:33;;;;;;;4.57;1.38;;;10.90;88.80;;;;;;5049424;28;20025;-78
2022/12/30 05:41:59;;;;;;;3.53;1.30;;;10.90;88.80;;;;;;5048797;28;20108;-76
2022/12/30 05:44:25;;;;;;;3.72;1.23;;;10.90;88.80;;;;;;5045904;28;20714;-77
2022/12/30 05:46:51;;;;;;;3.08;1.20;;;10.90;88.80;;;;;;5045768;28;20499;-75
2022/12/30 05:49:17;;;;;;;2.78;1.05;;;10.90;88.80;;;;;;5046155;28;20028;-75
2022/12/30 05:51:42;;;;;;;3.88;1.30;;;10.80;88.80;;;;;;5045237;28;20063;-76
2022/12/30 05:54:08;;;;;;;6.55;1.60;;;10.90;88.80;;;;;;5048070;28;20036;-75
2022/12/30 05:56:34;;;;;;;3.20;1.25;;;10.80;88.80;;;;;;5046490;28;20033;-75
2022/12/30 05:58:59;;;;;;;4.13;1.27;;;10.90;88.80;;;;;;5046355;28;20399;-79
2022/12/30 06:01:25;;;;;;;3.35;1.33;;;10.90;88.90;;;;;;5063465;28;20028;-75
2022/12/30 06:03:54;;;;;;;4.18;1.25;;;10.90;88.80;;;;;;5069427;28;20032;-76
2022/12/30 06:06:19;;;;;;;4.03;1.30;;;10.90;89.30;;;;;;5067919;28;20040;-75
2022/12/30 06:08:45;;;;;;;3.33;1.20;;;10.90;88.90;;;;;;5068533;28;20029;-77
2022/12/30 06:11:11;;;;;;;4.55;1.50;;;10.90;88.80;;;;;;5068667;28;20027;-79
2022/12/30 06:13:36;;;;;;;4.15;1.30;;;10.90;88.80;;;;;;5069565;28;20029;-75
2022/12/30 06:16:02;;;;;;;4.60;1.10;;;10.90;88.80;;;;;;5069191;28;20123;-77
2022/12/30 06:18:27;;;;;;;4.22;1.30;;;10.90;88.80;;;;;;5068782;28;20032;-75
2022/12/30 06:20:55;;;;;;;4.60;1.27;;;10.90;88.80;;;;;;5069390;28;20016;-78
2022/12/30 06:23:20;;;;;;;4.35;1.30;;;10.90;88.70;;;;;;5068960;28;20056;-76
2022/12/30 06:25:51;;;;;;;3.67;1.33;;;10.90;88.70;;;;;;5068730;28;20601;-77
2022/12/30 06:28:16;;;;;;;3.70;1.20;;;10.90;88.70;;;;;;5069898;28;20028;-76
2022/12/30 06:30:42;;;;;;;3.78;1.23;;;10.90;88.80;;;;;;5068523;28;20479;-78
2022/12/30 06:33:07;;;;;;;4.30;1.45;;;10.90;88.80;;;;;;5068362;28;20051;-77
2022/12/30 06:35:33;;;;;;;4.40;1.58;;;10.90;88.70;;;;;;5070399;28;20029;-78
2022/12/30 06:37:59;;;;;;;6.22;1.40;;;10.90;88.70;;;;;;5070062;28;20032;-76
2022/12/30 06:40:24;;;;;;;3.67;1.17;;;10.90;88.70;;;;;;5070235;28;20156;-81
2022/12/30 06:42:50;;;;;;;3.90;1.30;;;10.90;88.70;;;;;;5052557;28;20033;-76
2022/12/30 06:45:15;;;;;;;3.40;1.17;;;10.90;88.70;;;;;;5047880;28;20523;-83
2022/12/30 06:47:41;;;;;;;2.60;1.10;;;10.90;88.70;;;;;;5050058;28;20029;-75
2022/12/30 06:50:07;;;;;;;3.28;1.38;;;10.90;88.70;;;;;;5052198;28;20027;-75
2022/12/30 06:52:32;;;;;;;3.15;1.27;;;10.90;88.70;;;;;;5065482;28;20035;-75
2022/12/30 06:54:57;;;;;;;3.42;1.20;;;10.90;88.60;;;;;;5066155;28;20047;-76
2022/12/30 06:57:23;;;;;;;5.18;1.67;;;10.90;88.70;;;;;;5065559;28;20049;-78
2022/12/30 06:59:48;;;;;;;4.15;1.33;;;10.90;88.60;;;;;;5065049;28;20024;-75
2022/12/30 07:02:14;;;;;;;4.72;1.35;;;10.90;88.50;;;;;;5065867;28;20029;-75
2022/12/30 07:04:40;;;;;;;5.43;1.50;;;10.80;88.50;;;;;;5065927;28;20103;-78
2022/12/30 07:07:05;;;;;;;4.53;1.50;;;10.90;88.50;;;;;;5067286;28;20497;-78
2022/12/30 07:09:31;;;;;;;3.10;1.10;;;10.90;88.50;;;;;;5048032;28;20032;-78
2022/12/30 07:11:56;;;;;;;4.63;1.58;;;10.80;88.40;;;;;;5047460;28;20035;-78
2022/12/30 07:14:22;;;;;;;6.00;1.40;;;10.90;88.50;;;;;;5046184;28;20025;-76
2022/12/30 07:16:47;;;;;;;3.38;1.08;;;10.90;88.50;;;;;;5047325;28;20202;-76
2022/12/30 07:19:13;;;;;;;4.57;1.20;;;10.80;88.40;;;;;;5046539;28;20028;-76
2022/12/30 07:21:38;;;;;;;4.47;1.42;;;10.90;88.50;;;;;;5046735;28;20025;-75
2022/12/30 07:24:04;;;;;;;3.22;1.30;;;10.90;88.50;;;;;;5046824;28;20091;-79
2022/12/30 07:26:29;;;;;;;4.22;1.13;;;10.80;88.40;;;;;;5047105;28;20032;-76
2022/12/30 07:28:55;;;;;;;5.32;1.85;;;10.90;88.50;;;;;;5046963;28;20043;-79
2022/12/30 07:31:21;;;;;;;4.85;1.17;;;10.80;88.40;;;;;;5045736;28;20037;-78
2022/12/30 07:33:46;;;;;;;4.80;1.60;;;10.90;88.50;;;;;;5045767;28;20052;-79
2022/12/30 07:36:12;;;;;;;3.97;1.30;;;10.80;88.40;;;;;;5045180;28;20388;-79
2022/12/30 07:38:38;;;;;;;3.30;1.08;;;10.90;88.50;;;;;;5045803;28;20029;-77
2022/12/30 07:41:04;;;;;;;3.60;1.23;;;10.90;88.50;;;;;;5045859;28;20036;-76
2022/12/30 07:43:29;;;;;;;3.03;1.10;;;10.80;88.40;;;;;;5045064;28;20116;-76
2022/12/30 07:45:54;;;;;;;5.05;1.10;;;10.80;88.40;;;;;;5063266;28;20063;-76
2022/12/30 07:48:20;;;;;;;3.72;1.20;;;10.80;88.40;;;;;;5065186;28;20549;-78
2022/12/30 07:50:45;;;;;;;4.35;1.25;;;10.80;88.50;;;;;;5064753;28;20024;-80
2022/12/30 07:53:11;;;;;;;4.47;1.20;;;10.80;88.30;;;;;;5066338;28;20037;-75
2022/12/30 07:55:40;;;;;;;4.93;1.52;;;10.90;88.50;;;;;;5066466;28;20397;-78
2022/12/30 07:58:06;;;;;;;4.15;1.20;;;10.90;88.40;;;;;;5064356;28;20032;-75
2022/12/30 08:00:31;;;;;;;4.22;1.23;;;10.90;88.40;;;;;;5064784;28;20085;-76
2022/12/30 08:02:57;;;;;;;3.17;1.10;;;10.90;88.30;;;;;;5065881;28;20494;-78
2022/12/30 08:05:22;;;;;;;3.90;1.23;;;10.80;88.20;;;;;;5065580;28;20391;-75
2022/12/30 08:07:51;;;;;;;3.05;1.15;;;10.90;88.30;;;;;;5064696;28;20032;-75
2022/12/30 08:10:18;;;;;;;4.15;1.30;;;10.90;88.20;;;;;;5065915;28;20090;-76
2022/12/30 08:12:45;;;;;;;4.18;1.30;;;10.90;88.30;;;;;;5064597;28;20086;-79
2022/12/30 08:15:10;;;;;;;4.10;1.10;;;10.90;88.20;;;;;;5066024;28;20489;-76
2022/12/30 08:17:36;;;;;;;5.18;1.20;;;10.90;88.20;;;;;;5065775;28;20029;-77
2022/12/30 08:20:03;;;;;;;3.95;1.10;;;10.90;88.20;;;;;;5064617;28;20101;-78
2022/12/30 08:22:28;;;;;;;3.88;1.23;;;10.90;88.20;;;;;;5064935;28;20032;-79
2022/12/30 08:24:54;;;;;;;2.65;1.10;;;10.90;88.10;;;;;;5066016;28;20358;-79
2022/12/30 08:27:19;;;;;;;4.28;1.20;;;10.90;88.40;;;;;;5063526;28;20841;-77
2022/12/30 08:29:45;;;;;;;4.47;1.23;;;10.90;88.20;;;;;;5064723;28;20036;-79
2022/12/30 08:32:10;;;;;;;5.07;1.30;;;10.90;87.30;;;;;;5064356;28;20435;-78
2022/12/30 08:34:36;;;;;;;5.35;1.40;;;10.90;87.60;;;;;;5064214;28;20139;-76
2022/12/30 08:37:02;;;;;;;5.43;1.38;;;10.90;87.40;;;;;;5065878;28;20033;-76
2022/12/30 08:39:27;;;;;;;4.28;1.30;;;10.90;87.30;;;;;;5064359;28;20088;-75
2022/12/30 08:41:53;;;;;;;5.65;1.30;;;10.90;87.20;;;;;;5066205;28;20402;-77
2022/12/30 08:44:18;;;;;;;6.00;1.58;;;10.90;87.40;;;;;;5065921;28;20413;-76
2022/12/30 08:46:44;;;;;;;7.10;1.40;;;10.90;87.50;;;;;;5066247;28;20024;-76
2022/12/30 08:49:11;;;;;;;19.63;2.67;;;10.90;87.50;;;;;;5063848;28;20024;-76
2022/12/30 08:51:37;;;;;;;7.38;1.75;;;10.90;87.50;;;;;;5065313;28;20439;-76
2022/12/30 08:54:02;;;;;;;9.73;1.60;;;10.90;87.40;;;;;;5066183;28;20115;-76
2022/12/30 08:56:29;;;;;;;7.18;1.92;;;10.90;87.10;;;;;;5066264;28;20182;-78
2022/12/30 08:58:56;;;;;;;9.30;1.90;;;10.90;87.10;;;;;;5067774;28;20024;-76
2022/12/30 09:01:25;;;;;;;10.32;1.50;;;10.90;87.60;;;;;;5067371;28;20024;-75
2022/12/30 09:03:51;;;;;;;10.95;1.50;;;10.90;86.90;;;;;;5066363;28;20028;-76
2022/12/30 09:06:19;;;;;;;5.18;1.52;;;10.90;86.60;;;;;;5067340;28;20830;-78
2022/12/30 09:08:45;;;;;;;9.70;1.80;;;10.90;86.90;;;;;;5065718;28;20029;-77
2022/12/30 09:11:17;;;;;;;7.07;1.40;;;10.90;86.70;;;;;;5066179;28;20194;-77
2022/12/30 09:13:43;;;;;;;9.55;1.55;;;10.90;86.80;;;;;;5065253;28;20028;-78
2022/12/30 09:16:12;;;;;;;7.32;1.60;;;10.90;86.80;;;;;;5066636;28;20486;-76
2022/12/30 09:18:38;;;;;;;8.80;1.60;;;10.90;86.80;;;;;;5065105;28;20105;-76
2022/12/30 09:21:04;;;;;;;10.38;2.15;;;10.90;86.70;;;;;;5064740;28;20071;-76
2022/12/30 09:23:30;;;;;;;6.72;1.65;;;10.90;86.80;;;;;;5063899;28;20024;-75
2022/12/30 09:25:56;;;;;;;6.30;1.60;;;10.90;86.70;;;;;;5067136;28;20033;-81
2022/12/30 09:28:22;;;;;;;7.88;1.55;;;11.00;86.70;;;;;;5071625;28;20040;-80
2022/12/30 09:30:47;;;;;;;7.63;1.60;;;11.00;86.80;;;;;;5066219;28;20025;-75
2022/12/30 09:33:13;;;;;;;5.07;1.13;;;10.90;86.80;;;;;;5057989;28;20055;-75
2022/12/30 09:35:38;;;;;;;8.00;1.90;;;11.00;86.90;;;;;;5064633;28;20492;-75
2022/12/30 09:38:04;;;;;;;8.98;1.60;;;11.00;86.60;;;;;;5069088;28;20032;-77
2022/12/30 09:41:17;;;;;;;7.05;1.88;;;10.90;86.50;;;;;;5070003;28;20024;-75
2022/12/30 09:44:11;;;;;;;7.20;1.55;;;10.90;86.40;;;;;;5017090;28;20033;-77
2022/12/30 09:46:50;;;;;;;6.75;1.55;;;11.00;86.30;;;;;;5069949;28;20090;-77
2022/12/30 09:49:29;;;;;;;9.52;1.92;;;10.90;86.20;;;;;;5071248;28;20433;-76
2022/12/30 09:52:10;;;;;;;8.60;1.65;;;10.90;86.20;;;;;;5071246;28;20821;-77
2022/12/30 09:54:40;;;;;;;10.55;1.70;;;10.90;86.30;;;;;;5069883;28;20123;-74
2022/12/30 09:59:56;;;;;;;5.88;1.42;;;11.00;86.40;;;;;;5071382;28;20086;-77
2022/12/30 10:02:32;;;;;;;9.27;1.52;;;10.90;86.30;;;;;;5070733;28;20029;-76
2022/12/30 10:04:59;;;;;;;6.97;1.50;;;10.90;86.30;;;;;;5070428;28;20540;-76
2022/12/30 10:07:42;;;;;;;5.38;1.30;;;11.00;86.40;;;;;;5070754;28;20032;-77
2022/12/30 10:10:18;;;;;;;7.35;1.50;;;10.90;86.40;;;;;;5070998;28;20024;-76
2022/12/30 10:13:01;;;;;;;6.35;1.30;;;10.90;86.40;;;;;;5070442;28;20035;-75
2022/12/30 10:15:53;;;;;;;8.60;1.77;;;10.90;86.40;;;;;;5069389;28;20494;-75
2022/12/30 10:18:38;;;;;;;6.15;1.90;;;10.90;86.40;;;;;;5070714;28;20024;-77
2022/12/30 10:21:40;;;;;;;7.78;1.67;;;11.00;86.50;;;;;;5070343;28;20406;-76
2022/12/30 10:24:32;;;;;;;6.47;1.50;;;10.90;86.50;;;;;;5070497;28;20406;-77
2022/12/30 10:27:08;;;;;;;5.00;1.30;;;10.90;86.50;;;;;;5069038;28;20483;-76
2022/12/30 10:29:38;;;;;;;6.43;1.55;;;10.90;86.40;;;;;;5069451;28;20029;-76
2022/12/30 10:32:26;;;;;;;10.07;1.73;;;11.00;86.50;;;;;;5069765;28;20025;-76
2022/12/30 10:35:05;;;;;;;5.20;1.30;;;10.90;86.30;;;;;;5069904;28;20083;-75
2022/12/30 10:37:34;;;;;;;5.05;1.30;;;11.00;86.40;;;;;;5068937;28;20024;-79
2022/12/30 10:40:06;;;;;;;6.75;1.42;;;10.90;86.40;;;;;;5069383;28;20512;-75
2022/12/30 10:42:43;;;;;;;;;;;10.90;86.20;;;;;;5068253;28;20044;-78
2022/12/30 10:45:31;;;;;;;6.72;1.30;;;11.00;86.40;;;;;;5067984;28;20305;-78
2022/12/30 10:47:56;;;;;;;5.72;1.48;;;10.90;86.40;;;;;;5067289;28;20028;-76
2022/12/30 10:50:41;;;;;;;6.07;1.58;;;10.90;87.00;;;;;;5065036;28;20032;-76
2022/12/30 10:53:22;;;;;;;3.97;1.27;;;11.00;86.50;;;;;;5068171;28;20013;-76
2022/12/30 10:55:50;;;;;;;6.05;1.40;;;11.00;86.50;;;;;;5066062;28;20042;-77
2022/12/30 10:58:39;;;;;;;5.93;1.30;;;10.90;86.20;;;;;;5067127;28;20056;-75
2022/12/30 11:01:05;;;;;;;4.82;1.50;;;10.90;86.30;;;;;;5069883;28;20032;-79
2022/12/30 11:03:30;;;;;;;5.57;1.40;;;10.90;86.30;;;;;;5068142;28;20035;-76
2022/12/30 11:06:25;;;;;;;5.53;1.52;;;11.00;86.20;;;;;;5069768;28;20961;-77
2022/12/30 11:08:52;;;;;;;6.20;1.38;;;11.00;86.10;;;;;;5067721;28;20024;-75
2022/12/30 11:11:18;;;;;;;4.32;1.35;;;11.00;86.00;;;;;;5067416;28;20112;-77
2022/12/30 11:16:39;;;;;;;4.28;1.10;;;11.00;85.70;;;;;;5069809;28;20410;-76
2022/12/30 11:19:05;;;;;;;4.03;1.30;;;11.00;85.90;;;;;;5066554;28;20135;-76
2022/12/30 11:21:34;;;;;;;5.13;1.27;;;11.10;86.20;;;;;;5065909;28;20534;-77
2022/12/30 11:24:02;;;;;;;4.32;1.40;;;11.00;86.00;;;;;;5065467;28;20427;-76
2022/12/30 11:26:32;;;;;;;4.00;1.02;;;11.00;85.90;;;;;;5066091;28;20024;-75
2022/12/30 11:29:09;;;;;;;4.60;1.20;;;11.00;85.80;;;;;;5067402;28;20402;-77
2022/12/30 11:31:41;;;;;;;4.60;1.35;;;11.00;86.20;;;;;;5067054;28;20054;-76
2022/12/30 11:34:32;;;;;;;3.60;1.30;;;11.10;86.00;;;;;;5065971;28;20051;-77
2022/12/30 11:37:31;;;;;;;4.10;1.00;;;11.10;86.00;;;;;;5071007;28;20033;-77
2022/12/30 11:40:33;;;;;;;5.50;1.35;;;11.10;86.10;;;;;;5069889;28;20082;-76
2022/12/30 11:43:07;;;;;;;4.20;1.10;;;11.10;86.10;;;;;;5053656;28;20036;-76
2022/12/30 11:45:32;;;;;;;6.57;1.50;;;11.10;86.10;;;;;;5069247;28;20119;-76
2022/12/30 11:47:59;;;;;;;4.75;1.25;;;11.10;86.20;;;;;;5054192;28;20025;-75
2022/12/30 11:50:24;;;;;;;5.22;1.10;;;11.00;86.10;;;;;;5047553;28;20032;-78
2022/12/30 11:52:52;;;;;;;4.50;1.20;;;11.10;86.10;;;;;;5048642;28;20032;-75
2022/12/30 11:55:22;;;;;;;3.88;1.40;;;11.10;86.20;;;;;;5047340;28;20078;-75
2022/12/30 11:57:48;;;;;;;6.07;1.25;;;11.10;86.10;;;;;;5047224;28;20041;-76
2022/12/30 12:00:16;;;;;;;3.42;1.10;;;11.10;86.30;;;;;;5047497;28;20028;-77
2022/12/30 12:02:47;;;;;;;4.18;1.08;;;11.10;86.20;;;;;;5048600;28;20064;-75
2022/12/30 12:05:29;;;;;;;4.97;1.08;;;11.10;86.10;;;;;;5048492;28;20052;-75
2022/12/30 12:08:20;;;;;;;3.28;1.10;;;11.00;86.30;;;;;;5047375;28;20686;-75
2022/12/30 12:10:49;;;;;;;;;;;11.00;86.10;;;;;;5039560;28;20115;-77
2022/12/30 12:13:40;;;;;;;3.47;0.93;;;11.10;86.00;;;;;;5044379;28;19966;-75
2022/12/30 12:16:11;;;;;;;2.95;1.20;;;11.00;86.20;;;;;;5044684;28;20036;-79
2022/12/30 12:18:37;;;;;;;4.47;1.15;;;11.00;86.20;;;;;;5046178;28;20055;-78
2022/12/30 12:21:24;;;;;;;4.00;1.15;;;11.00;86.30;;;;;;5044391;28;20360;-77
2022/12/30 12:24:03;;;;;;;5.38;1.13;;;11.00;86.70;;;;;;5044606;28;20495;-80
2022/12/30 12:27:05;;;;;;;4.63;1.20;;;11.00;86.20;;;;;;5045639;28;20036;-78
2022/12/30 12:29:33;;;;;;;5.30;1.10;;;11.00;86.40;;;;;;5045709;28;20047;-77
2022/12/30 12:32:07;;;;;;;4.20;1.13;;;10.90;85.90;;;;;;5045458;28;20120;-78
2022/12/30 12:34:54;;;;;;;2.85;0.90;;;11.00;86.10;;;;;;5044291;28;20029;-78
2022/12/30 12:37:31;;;;;;;4.32;1.40;;;11.00;86.00;;;;;;5064897;28;20425;-75
2022/12/30 12:39:57;;;;;;;4.53;1.23;;;11.00;86.20;;;;;;5067138;28;20025;-76
2022/12/30 12:42:28;;;;;;;4.28;1.08;;;11.00;86.20;;;;;;5063822;28;20033;-76
2022/12/30 12:45:28;;;;;;;3.03;1.15;;;11.00;86.10;;;;;;5064937;28;20040;-77
2022/12/30 12:48:16;;;;;;;2.97;0.90;;;11.00;86.50;;;;;;5063955;28;20017;-77
2022/12/30 12:51:01;;;;;;;5.78;1.10;;;11.00;86.00;;;;;;5063655;28;20020;-76
2022/12/30 12:53:41;;;;;;;4.00;1.15;;;11.00;86.00;;;;;;5064278;28;20052;-77
2022/12/30 12:56:13;;;;;;;3.20;1.23;;;11.00;86.00;;;;;;5064908;28;20398;-77
2022/12/30 12:59:13;;;;;;;3.38;1.13;;;11.00;86.00;;;;;;5064182;28;20032;-79
2022/12/30 13:02:10;;;;;;;3.15;1.10;;;11.00;86.00;;;;;;5065706;28;20064;-79
2022/12/30 13:05:07;;;;;;;3.03;1.10;;;11.00;86.10;;;;;;5031256;28;20414;-77
2022/12/30 13:07:50;;;;;;;3.47;1.15;;;11.00;85.90;;;;;;5066968;28;20036;-76
2022/12/30 13:10:35;;;;;;;4.68;1.45;;;11.00;86.10;;;;;;5067424;28;20039;-79
2022/12/30 13:13:24;;;;;;;3.60;1.10;;;11.00;86.00;;;;;;5064831;28;20510;-77
2022/12/30 13:15:56;;;;;;;3.75;1.00;;;11.00;86.20;;;;;;5064768;28;20035;-75
2022/12/30 13:18:23;;;;;;;3.92;1.08;;;10.90;86.20;;;;;;5064257;28;20024;-75
2022/12/30 13:20:55;;;;;;;3.92;1.05;;;10.90;86.00;;;;;;5063628;28;20061;-75
2022/12/30 13:23:24;;;;;;;3.58;1.35;;;10.90;86.10;;;;;;5064221;28;20029;-75
2022/12/30 13:25:54;;;;;;;2.85;1.02;;;10.90;85.90;;;;;;5064383;28;20032;-75
2022/12/30 13:28:27;;;;;;;6.50;1.30;;;10.90;86.00;;;;;;5065639;28;20028;-75
2022/12/30 13:31:13;;;;;;;2.55;0.93;;;10.90;85.90;;;;;;5063696;28;20223;-76
2022/12/30 13:33:54;;;;;;;3.50;0.90;;;10.90;85.90;;;;;;5065542;28;20025;-75
2022/12/30 13:36:35;;;;;;;4.45;1.15;;;10.90;85.90;;;;;;5065125;28;20506;-77
2022/12/30 13:39:22;;;;;;;2.28;0.95;;;10.90;86.00;;;;;;5065305;28;20032;-76
2022/12/30 13:42:12;;;;;;;3.20;1.00;;;10.90;86.00;;;;;;5063754;28;20043;-76
2022/12/30 13:44:42;;;;;;;;;;;10.90;86.00;;;;;;5064287;28;20033;-78
2022/12/30 13:47:33;;;;;;;4.78;1.40;;;10.90;85.90;;;;;;5065180;28;20319;-75
2022/12/30 13:49:59;;;;;;;4.22;1.20;;;10.90;85.90;;;;;;5063818;28;20081;-77
2022/12/30 13:52:27;;;;;;;2.60;1.00;;;10.90;86.00;;;;;;5063932;28;20552;-75
2022/12/30 13:54:55;;;;;;;4.20;1.10;;;10.90;85.90;;;;;;5063970;28;20071;-77
2022/12/30 13:57:35;;;;;;;3.78;1.10;;;10.90;85.90;;;;;;5063373;28;20503;-76
2022/12/30 14:00:26;;;;;;;3.80;1.00;;;10.90;85.70;;;;;;5065249;28;20025;-76
2022/12/30 14:02:59;;;;;;;3.95;1.10;;;10.90;85.80;;;;;;5063450;28;20475;-77